sensor_id;sensor_type;location;lat;lon;timestamp;temperature;humidity
32201;DHT22;18701;45.588;5.288;2023-01-29T00:02:02;2.00;99.90
32201;DHT22;18701;45.588;5.288;2023-01-29T00:04:29;2.00;99.90
32201;DHT22;18701;45.588;5.288;2023-01-29T00:06:54;2.00;99.90
32201;DHT22;18701;45.588;5.288;2023-01-29T00:09:20;2.00;99.90
32201;DHT22;18701;45.588;5.288;2023-01-29T00:11:46;2.00;99.90
32201;DHT22;18701;45.588;5.288;2023-01-29T00:14:12;1.90;99.90
32201;DHT22;18701;45.588;5.288;2023-01-29T00:16:38;2.00;99.90
32201;DHT22;18701;45.588;5.288;2023-01-29T00:19:03;2.00;99.90
32201;DHT22;18701;45.588;5.288;2023-01-29T00:21:29;2.00;99.90
32201;DHT22;18701;45.588;5.288;2023-01-29T00:23:56;2.00;99.90
32201;DHT22;18701;45.588;5.288;2023-01-29T00:26:22;1.90;99.90
32201;DHT22;18701;45.588;5.288;2023-01-29T00:28:48;2.00;99.90
32201;DHT22;18701;45.588;5.288;2023-01-29T00:31:20;2.00;99.90
32201;DHT22;18701;45.588;5.288;2023-01-29T00:33:46;2.00;99.90
32201;DHT22;18701;45.588;5.288;2023-01-29T00:36:13;1.90;99.90
32201;DHT22;18701;45.588;5.288;2023-01-29T00:38:39;1.90;99.90
32201;DHT22;18701;45.588;5.288;2023-01-29T00:41:09;1.90;99.90
32201;DHT22;18701;45.588;5.288;2023-01-29T00:43:54;2.00;99.90
32201;DHT22;18701;45.588;5.288;2023-01-29T00:46:38;2.00;99.90
32201;DHT22;18701;45.588;5.288;2023-01-29T00:49:04;2.00;99.90
32201;DHT22;18701;45.588;5.288;2023-01-29T00:51:30;2.00;99.90
32201;DHT22;18701;45.588;5.288;2023-01-29T00:53:56;1.90;99.90
32201;DHT22;18701;45.588;5.288;2023-01-29T00:56:28;2.00;99.90
32201;DHT22;18701;45.588;5.288;2023-01-29T00:58:55;2.00;99.90
32201;DHT22;18701;45.588;5.288;2023-01-29T01:01:21;2.00;99.90
32201;DHT22;18701;45.588;5.288;2023-01-29T01:04:08;2.00;99.90
32201;DHT22;18701;45.588;5.288;2023-01-29T01:06:37;2.00;99.90
32201;DHT22;18701;45.588;5.288;2023-01-29T01:09:03;2.00;99.90
32201;DHT22;18701;45.588;5.288;2023-01-29T01:11:48;2.00;99.90
32201;DHT22;18701;45.588;5.288;2023-01-29T01:14:13;1.90;99.90
32201;DHT22;18701;45.588;5.288;2023-01-29T01:16:39;1.90;99.90
32201;DHT22;18701;45.588;5.288;2023-01-29T01:19:04;1.90;99.90
32201;DHT22;18701;45.588;5.288;2023-01-29T01:21:31;2.00;99.90
32201;DHT22;18701;45.588;5.288;2023-01-29T01:23:57;1.90;99.90
32201;DHT22;18701;45.588;5.288;2023-01-29T01:26:23;1.80;99.90
32201;DHT22;18701;45.588;5.288;2023-01-29T01:28:48;1.90;99.90
32201;DHT22;18701;45.588;5.288;2023-01-29T01:31:14;1.90;99.90
32201;DHT22;18701;45.588;5.288;2023-01-29T01:33:40;1.90;99.90
32201;DHT22;18701;45.588;5.288;2023-01-29T01:36:06;1.90;99.90
32201;DHT22;18701;45.588;5.288;2023-01-29T01:38:38;2.00;99.90
32201;DHT22;18701;45.588;5.288;2023-01-29T01:41:19;1.90;99.90
32201;DHT22;18701;45.588;5.288;2023-01-29T01:43:57;1.90;99.90
32201;DHT22;18701;45.588;5.288;2023-01-29T01:46:34;2.00;99.90
32201;DHT22;18701;45.588;5.288;2023-01-29T01:49:08;2.00;99.90
32201;DHT22;18701;45.588;5.288;2023-01-29T01:51:40;2.00;99.90
32201;DHT22;18701;45.588;5.288;2023-01-29T01:54:26;1.90;99.90
32201;DHT22;18701;45.588;5.288;2023-01-29T01:56:57;1.90;99.90
32201;DHT22;18701;45.588;5.288;2023-01-29T01:59:34;1.90;99.90
32201;DHT22;18701;45.588;5.288;2023-01-29T02:02:01;1.90;99.90
32201;DHT22;18701;45.588;5.288;2023-01-29T02:04:47;1.90;99.90
32201;DHT22;18701;45.588;5.288;2023-01-29T02:07:31;1.90;99.90
32201;DHT22;18701;45.588;5.288;2023-01-29T02:10:16;1.90;99.90
32201;DHT22;18701;45.588;5.288;2023-01-29T02:12:44;1.90;99.90
32201;DHT22;18701;45.588;5.288;2023-01-29T02:15:11;1.90;99.90
32201;DHT22;18701;45.588;5.288;2023-01-29T02:17:37;1.90;99.90
32201;DHT22;18701;45.588;5.288;2023-01-29T02:33:58;1.90;99.90
32201;DHT22;18701;45.588;5.288;2023-01-29T02:42:10;1.80;99.90
32201;DHT22;18701;45.588;5.288;2023-01-29T02:44:46;1.90;99.90
32201;DHT22;18701;45.588;5.288;2023-01-29T02:49:55;1.90;99.90
32201;DHT22;18701;45.588;5.288;2023-01-29T02:52:40;1.80;99.90
32201;DHT22;18701;45.588;5.288;2023-01-29T02:55:11;1.90;99.90
32201;DHT22;18701;45.588;5.288;2023-01-29T02:57:40;1.90;99.90
32201;DHT22;18701;45.588;5.288;2023-01-29T03:00:29;1.90;99.90
32201;DHT22;18701;45.588;5.288;2023-01-29T03:05:49;1.80;99.90
32201;DHT22;18701;45.588;5.288;2023-01-29T03:08:30;1.90;99.90
32201;DHT22;18701;45.588;5.288;2023-01-29T03:11:05;1.90;99.90
32201;DHT22;18701;45.588;5.288;2023-01-29T03:16:16;1.90;99.90
32201;DHT22;18701;45.588;5.288;2023-01-29T03:18:48;2.00;99.90
32201;DHT22;18701;45.588;5.288;2023-01-29T03:21:28;1.90;99.90
32201;DHT22;18701;45.588;5.288;2023-01-29T03:24:57;1.90;99.90
32201;DHT22;18701;45.588;5.288;2023-01-29T03:27:26;1.80;99.90
32201;DHT22;18701;45.588;5.288;2023-01-29T03:30:15;1.80;99.90
32201;DHT22;18701;45.588;5.288;2023-01-29T03:33:04;1.90;99.90
32201;DHT22;18701;45.588;5.288;2023-01-29T03:35:35;1.90;99.90
32201;DHT22;18701;45.588;5.288;2023-01-29T03:38:06;1.90;99.90
32201;DHT22;18701;45.588;5.288;2023-01-29T03:41:02;1.90;99.90
32201;DHT22;18701;45.588;5.288;2023-01-29T03:43:39;1.90;99.90
32201;DHT22;18701;45.588;5.288;2023-01-29T03:46:35;1.80;99.90
32201;DHT22;18701;45.588;5.288;2023-01-29T03:51:39;1.80;99.90
32201;DHT22;18701;45.588;5.288;2023-01-29T03:54:16;1.90;99.90
32201;DHT22;18701;45.588;5.288;2023-01-29T04:00:35;1.90;99.90
32201;DHT22;18701;45.588;5.288;2023-01-29T04:05:42;1.80;99.90
32201;DHT22;18701;45.588;5.288;2023-01-29T04:08:15;1.80;99.90
32201;DHT22;18701;45.588;5.288;2023-01-29T04:10:43;1.80;99.90
32201;DHT22;18701;45.588;5.288;2023-01-29T04:13:11;1.90;99.90
32201;DHT22;18701;45.588;5.288;2023-01-29T04:15:43;1.90;99.90
32201;DHT22;18701;45.588;5.288;2023-01-29T04:18:10;1.90;99.90
32201;DHT22;18701;45.588;5.288;2023-01-29T04:20:36;1.80;99.90
32201;DHT22;18701;45.588;5.288;2023-01-29T04:23:05;1.90;99.90
32201;DHT22;18701;45.588;5.288;2023-01-29T04:25:40;1.90;99.90
32201;DHT22;18701;45.588;5.288;2023-01-29T04:28:29;1.80;99.90
32201;DHT22;18701;45.588;5.288;2023-01-29T04:31:07;1.80;99.90
32201;DHT22;18701;45.588;5.288;2023-01-29T04:33:45;1.90;99.90
32201;DHT22;18701;45.588;5.288;2023-01-29T04:55:34;1.70;99.90
32201;DHT22;18701;45.588;5.288;2023-01-29T04:58:25;1.80;99.90
32201;DHT22;18701;45.588;5.288;2023-01-29T05:00:53;1.70;99.90
32201;DHT22;18701;45.588;5.288;2023-01-29T05:03:22;1.70;99.90
32201;DHT22;18701;45.588;5.288;2023-01-29T05:05:49;1.70;99.90
32201;DHT22;18701;45.588;5.288;2023-01-29T05:08:18;1.70;99.90
32201;DHT22;18701;45.588;5.288;2023-01-29T05:10:46;1.60;99.90
32201;DHT22;18701;45.588;5.288;2023-01-29T05:13:14;1.60;99.90
32201;DHT22;18701;45.588;5.288;2023-01-29T05:15:44;1.70;99.90
32201;DHT22;18701;45.588;5.288;2023-01-29T05:18:10;1.60;99.90
32201;DHT22;18701;45.588;5.288;2023-01-29T05:20:38;1.60;99.90
32201;DHT22;18701;45.588;5.288;2023-01-29T05:23:18;1.70;99.90
32201;DHT22;18701;45.588;5.288;2023-01-29T05:25:44;1.60;99.90
32201;DHT22;18701;45.588;5.288;2023-01-29T05:28:11;1.70;99.90
32201;DHT22;18701;45.588;5.288;2023-01-29T05:30:48;1.60;99.90
32201;DHT22;18701;45.588;5.288;2023-01-29T05:33:32;1.60;99.90
32201;DHT22;18701;45.588;5.288;2023-01-29T05:35:58;1.60;99.90
32201;DHT22;18701;45.588;5.288;2023-01-29T05:38:24;1.60;99.90
32201;DHT22;18701;45.588;5.288;2023-01-29T05:40:50;1.50;99.90
32201;DHT22;18701;45.588;5.288;2023-01-29T05:45:50;1.60;99.90
32201;DHT22;18701;45.588;5.288;2023-01-29T05:48:16;1.60;99.90
32201;DHT22;18701;45.588;5.288;2023-01-29T05:50:41;1.50;99.90
32201;DHT22;18701;45.588;5.288;2023-01-29T05:53:08;1.50;99.90
32201;DHT22;18701;45.588;5.288;2023-01-29T05:55:33;1.50;99.90
32201;DHT22;18701;45.588;5.288;2023-01-29T05:57:59;1.60;99.90
32201;DHT22;18701;45.588;5.288;2023-01-29T06:00:25;1.60;99.90
32201;DHT22;18701;45.588;5.288;2023-01-29T06:02:50;1.50;99.90
32201;DHT22;18701;45.588;5.288;2023-01-29T06:05:16;1.50;99.90
32201;DHT22;18701;45.588;5.288;2023-01-29T06:07:42;1.60;99.90
32201;DHT22;18701;45.588;5.288;2023-01-29T06:10:11;1.60;99.90
32201;DHT22;18701;45.588;5.288;2023-01-29T06:12:38;1.50;99.90
32201;DHT22;18701;45.588;5.288;2023-01-29T06:15:03;1.40;99.90
32201;DHT22;18701;45.588;5.288;2023-01-29T06:17:29;1.30;99.90
32201;DHT22;18701;45.588;5.288;2023-01-29T06:19:55;1.30;99.90
32201;DHT22;18701;45.588;5.288;2023-01-29T06:22:21;1.40;99.90
32201;DHT22;18701;45.588;5.288;2023-01-29T06:24:46;1.40;99.90
32201;DHT22;18701;45.588;5.288;2023-01-29T06:27:12;1.40;99.90
32201;DHT22;18701;45.588;5.288;2023-01-29T06:29:37;1.30;99.90
32201;DHT22;18701;45.588;5.288;2023-01-29T06:32:03;1.30;99.90
32201;DHT22;18701;45.588;5.288;2023-01-29T06:34:29;1.30;99.90
32201;DHT22;18701;45.588;5.288;2023-01-29T06:36:54;1.30;99.90
32201;DHT22;18701;45.588;5.288;2023-01-29T06:39:20;1.30;99.90
32201;DHT22;18701;45.588;5.288;2023-01-29T06:41:46;1.30;99.90
32201;DHT22;18701;45.588;5.288;2023-01-29T06:44:11;1.30;99.90
32201;DHT22;18701;45.588;5.288;2023-01-29T06:46:37;1.30;99.90
32201;DHT22;18701;45.588;5.288;2023-01-29T06:49:02;1.10;99.90
32201;DHT22;18701;45.588;5.288;2023-01-29T06:51:28;1.30;99.90
32201;DHT22;18701;45.588;5.288;2023-01-29T06:53:54;1.30;99.90
32201;DHT22;18701;45.588;5.288;2023-01-29T06:56:21;1.30;99.90
32201;DHT22;18701;45.588;5.288;2023-01-29T06:58:47;1.40;99.90
32201;DHT22;18701;45.588;5.288;2023-01-29T07:01:13;1.20;99.90
32201;DHT22;18701;45.588;5.288;2023-01-29T07:03:41;1.20;99.90
32201;DHT22;18701;45.588;5.288;2023-01-29T07:06:08;1.20;99.90
32201;DHT22;18701;45.588;5.288;2023-01-29T07:08:38;1.20;99.90
32201;DHT22;18701;45.588;5.288;2023-01-29T07:11:04;1.30;99.90
32201;DHT22;18701;45.588;5.288;2023-01-29T07:13:31;1.30;99.90
32201;DHT22;18701;45.588;5.288;2023-01-29T07:16:00;1.20;99.90
32201;DHT22;18701;45.588;5.288;2023-01-29T07:18:27;1.20;99.90
32201;DHT22;18701;45.588;5.288;2023-01-29T07:20:53;1.20;99.90
32201;DHT22;18701;45.588;5.288;2023-01-29T07:23:19;1.20;99.90
32201;DHT22;18701;45.588;5.288;2023-01-29T07:25:44;1.10;99.90
32201;DHT22;18701;45.588;5.288;2023-01-29T07:28:10;1.20;99.90
32201;DHT22;18701;45.588;5.288;2023-01-29T07:30:36;1.20;99.90
32201;DHT22;18701;45.588;5.288;2023-01-29T07:35:28;1.20;99.90
32201;DHT22;18701;45.588;5.288;2023-01-29T07:37:54;1.20;99.90
32201;DHT22;18701;45.588;5.288;2023-01-29T07:40:19;1.10;99.90
32201;DHT22;18701;45.588;5.288;2023-01-29T07:42:45;1.10;99.90
32201;DHT22;18701;45.588;5.288;2023-01-29T07:45:12;1.20;99.90
32201;DHT22;18701;45.588;5.288;2023-01-29T07:47:38;1.20;99.90
32201;DHT22;18701;45.588;5.288;2023-01-29T07:50:04;1.20;99.90
32201;DHT22;18701;45.588;5.288;2023-01-29T07:52:31;1.20;99.90
32201;DHT22;18701;45.588;5.288;2023-01-29T07:54:57;1.30;99.90
32201;DHT22;18701;45.588;5.288;2023-01-29T07:57:23;1.30;99.90
32201;DHT22;18701;45.588;5.288;2023-01-29T07:59:49;1.30;99.90
32201;DHT22;18701;45.588;5.288;2023-01-29T08:02:14;1.30;99.90
32201;DHT22;18701;45.588;5.288;2023-01-29T08:04:40;1.50;99.90
32201;DHT22;18701;45.588;5.288;2023-01-29T08:07:05;1.60;99.90
32201;DHT22;18701;45.588;5.288;2023-01-29T08:09:34;1.40;99.90
32201;DHT22;18701;45.588;5.288;2023-01-29T08:11:59;1.40;99.90
32201;DHT22;18701;45.588;5.288;2023-01-29T08:14:25;1.40;99.90
32201;DHT22;18701;45.588;5.288;2023-01-29T08:16:50;1.50;99.90
32201;DHT22;18701;45.588;5.288;2023-01-29T08:19:16;1.50;99.90
32201;DHT22;18701;45.588;5.288;2023-01-29T08:21:42;1.40;99.90
32201;DHT22;18701;45.588;5.288;2023-01-29T08:24:08;1.40;99.90
32201;DHT22;18701;45.588;5.288;2023-01-29T08:26:33;1.40;99.90
32201;DHT22;18701;45.588;5.288;2023-01-29T08:28:59;1.40;99.90
32201;DHT22;18701;45.588;5.288;2023-01-29T08:31:25;1.50;99.90
32201;DHT22;18701;45.588;5.288;2023-01-29T08:33:52;1.50;99.90
32201;DHT22;18701;45.588;5.288;2023-01-29T08:36:19;1.50;99.90
32201;DHT22;18701;45.588;5.288;2023-01-29T08:38:44;1.50;99.90
32201;DHT22;18701;45.588;5.288;2023-01-29T08:41:10;1.60;99.90
32201;DHT22;18701;45.588;5.288;2023-01-29T08:43:36;1.50;99.90
32201;DHT22;18701;45.588;5.288;2023-01-29T08:46:03;1.60;99.90
32201;DHT22;18701;45.588;5.288;2023-01-29T08:48:29;1.60;99.90
32201;DHT22;18701;45.588;5.288;2023-01-29T08:50:59;1.60;99.90
32201;DHT22;18701;45.588;5.288;2023-01-29T08:53:25;1.60;99.90
32201;DHT22;18701;45.588;5.288;2023-01-29T08:55:51;1.70;99.90
32201;DHT22;18701;45.588;5.288;2023-01-29T08:58:17;1.60;99.90
32201;DHT22;18701;45.588;5.288;2023-01-29T09:00:43;1.50;99.90
32201;DHT22;18701;45.588;5.288;2023-01-29T09:03:12;1.60;99.90
32201;DHT22;18701;45.588;5.288;2023-01-29T09:05:39;1.60;99.90
32201;DHT22;18701;45.588;5.288;2023-01-29T09:08:05;1.60;99.90
32201;DHT22;18701;45.588;5.288;2023-01-29T09:10:31;1.50;99.90
32201;DHT22;18701;45.588;5.288;2023-01-29T09:12:57;1.50;99.90
32201;DHT22;18701;45.588;5.288;2023-01-29T09:15:23;1.60;99.90
32201;DHT22;18701;45.588;5.288;2023-01-29T09:17:48;1.40;99.90
32201;DHT22;18701;45.588;5.288;2023-01-29T09:20:15;1.50;99.90
32201;DHT22;18701;45.588;5.288;2023-01-29T09:22:41;1.70;99.90
32201;DHT22;18701;45.588;5.288;2023-01-29T09:25:07;1.80;99.90
32201;DHT22;18701;45.588;5.288;2023-01-29T09:27:32;1.70;99.90
32201;DHT22;18701;45.588;5.288;2023-01-29T09:29:58;1.80;99.90
32201;DHT22;18701;45.588;5.288;2023-01-29T09:32:24;1.70;99.90
32201;DHT22;18701;45.588;5.288;2023-01-29T09:34:50;1.70;99.90
32201;DHT22;18701;45.588;5.288;2023-01-29T09:37:15;1.80;99.90
32201;DHT22;18701;45.588;5.288;2023-01-29T09:39:42;1.80;99.90
32201;DHT22;18701;45.588;5.288;2023-01-29T09:42:20;1.80;99.90
32201;DHT22;18701;45.588;5.288;2023-01-29T09:45:11;1.80;99.90
32201;DHT22;18701;45.588;5.288;2023-01-29T09:47:38;1.90;99.90
32201;DHT22;18701;45.588;5.288;2023-01-29T09:52:49;1.90;99.90
32201;DHT22;18701;45.588;5.288;2023-01-29T10:01:04;1.70;99.90
32201;DHT22;18701;45.588;5.288;2023-01-29T10:03:51;1.90;99.90
32201;DHT22;18701;45.588;5.288;2023-01-29T10:12:10;1.80;99.90
32201;DHT22;18701;45.588;5.288;2023-01-29T10:14:59;1.90;99.90
32201;DHT22;18701;45.588;5.288;2023-01-29T10:25:27;1.90;99.90
32201;DHT22;18701;45.588;5.288;2023-01-29T10:27:56;1.80;99.90
32201;DHT22;18701;45.588;5.288;2023-01-29T10:30:35;1.90;99.90
32201;DHT22;18701;45.588;5.288;2023-01-29T10:33:04;1.80;99.90
32201;DHT22;18701;45.588;5.288;2023-01-29T10:35:34;1.80;99.90
32201;DHT22;18701;45.588;5.288;2023-01-29T10:41:12;1.70;99.90
32201;DHT22;18701;45.588;5.288;2023-01-29T10:46:50;1.70;99.90
32201;DHT22;18701;45.588;5.288;2023-01-29T10:52:22;1.70;99.90
32201;DHT22;18701;45.588;5.288;2023-01-29T10:55:28;1.90;99.90
32201;DHT22;18701;45.588;5.288;2023-01-29T11:00:40;1.80;99.90
32201;DHT22;18701;45.588;5.288;2023-01-29T11:03:26;1.90;99.90
32201;DHT22;18701;45.588;5.288;2023-01-29T11:08:25;1.70;99.90
32201;DHT22;18701;45.588;5.288;2023-01-29T11:11:15;1.80;99.90
32201;DHT22;18701;45.588;5.288;2023-01-29T11:14:04;1.80;99.90
32201;DHT22;18701;45.588;5.288;2023-01-29T11:16:46;1.80;99.90
32201;DHT22;18701;45.588;5.288;2023-01-29T11:19:13;1.70;99.90
32201;DHT22;18701;45.588;5.288;2023-01-29T11:21:58;1.80;99.90
32201;DHT22;18701;45.588;5.288;2023-01-29T11:24:26;1.80;99.90
32201;DHT22;18701;45.588;5.288;2023-01-29T11:26:54;2.00;99.90
32201;DHT22;18701;45.588;5.288;2023-01-29T11:29:32;2.00;99.90
32201;DHT22;18701;45.588;5.288;2023-01-29T11:32:00;1.70;99.90
32201;DHT22;18701;45.588;5.288;2023-01-29T11:34:28;1.80;99.90
32201;DHT22;18701;45.588;5.288;2023-01-29T11:36:57;1.80;99.90
32201;DHT22;18701;45.588;5.288;2023-01-29T11:39:24;1.90;99.90
32201;DHT22;18701;45.588;5.288;2023-01-29T11:42:01;1.90;99.90
32201;DHT22;18701;45.588;5.288;2023-01-29T11:44:40;1.80;99.90
32201;DHT22;18701;45.588;5.288;2023-01-29T11:47:26;1.90;99.90
32201;DHT22;18701;45.588;5.288;2023-01-29T11:49:55;1.90;99.90
32201;DHT22;18701;45.588;5.288;2023-01-29T11:52:23;1.80;99.90
32201;DHT22;18701;45.588;5.288;2023-01-29T11:55:03;1.80;99.90
32201;DHT22;18701;45.588;5.288;2023-01-29T11:57:34;1.70;99.90
32201;DHT22;18701;45.588;5.288;2023-01-29T12:00:20;1.90;99.90
32201;DHT22;18701;45.588;5.288;2023-01-29T12:02:53;1.90;99.90
32201;DHT22;18701;45.588;5.288;2023-01-29T12:05:24;1.80;99.90
32201;DHT22;18701;45.588;5.288;2023-01-29T12:08:00;1.90;99.90
32201;DHT22;18701;45.588;5.288;2023-01-29T12:15:45;1.90;99.90
32201;DHT22;18701;45.588;5.288;2023-01-29T12:20:57;2.10;99.90
32201;DHT22;18701;45.588;5.288;2023-01-29T12:26:17;2.20;99.90
32201;DHT22;18701;45.588;5.288;2023-01-29T12:40:11;2.50;99.90
32201;DHT22;18701;45.588;5.288;2023-01-29T12:42:39;2.60;99.90
32201;DHT22;18701;45.588;5.288;2023-01-29T12:45:07;2.70;99.90
32201;DHT22;18701;45.588;5.288;2023-01-29T12:47:45;2.50;99.90
32201;DHT22;18701;45.588;5.288;2023-01-29T12:50:32;2.50;99.90
32201;DHT22;18701;45.588;5.288;2023-01-29T12:55:48;2.50;99.90
32201;DHT22;18701;45.588;5.288;2023-01-29T12:58:28;2.50;99.90
32201;DHT22;18701;45.588;5.288;2023-01-29T13:00:56;2.50;99.90
32201;DHT22;18701;45.588;5.288;2023-01-29T13:03:52;2.60;99.90
32201;DHT22;18701;45.588;5.288;2023-01-29T13:06:49;2.60;99.90
32201;DHT22;18701;45.588;5.288;2023-01-29T13:09:20;2.50;99.90
32201;DHT22;18701;45.588;5.288;2023-01-29T13:11:55;2.60;99.90
32201;DHT22;18701;45.588;5.288;2023-01-29T13:17:22;2.60;99.90
32201;DHT22;18701;45.588;5.288;2023-01-29T13:19:51;2.60;99.90
32201;DHT22;18701;45.588;5.288;2023-01-29T13:22:24;2.60;99.90
32201;DHT22;18701;45.588;5.288;2023-01-29T13:24:51;2.80;99.90
32201;DHT22;18701;45.588;5.288;2023-01-29T13:27:44;2.70;99.90
32201;DHT22;18701;45.588;5.288;2023-01-29T13:30:30;2.80;99.90
32201;DHT22;18701;45.588;5.288;2023-01-29T13:32:58;2.80;99.90
32201;DHT22;18701;45.588;5.288;2023-01-29T13:35:38;2.80;99.90
32201;DHT22;18701;45.588;5.288;2023-01-29T13:38:05;2.90;99.90
32201;DHT22;18701;45.588;5.288;2023-01-29T13:40:48;2.90;99.90
32201;DHT22;18701;45.588;5.288;2023-01-29T13:43:19;2.80;99.90
32201;DHT22;18701;45.588;5.288;2023-01-29T13:45:46;2.90;99.90
32201;DHT22;18701;45.588;5.288;2023-01-29T13:48:24;2.90;99.90
32201;DHT22;18701;45.588;5.288;2023-01-29T13:50:51;2.90;99.90
32201;DHT22;18701;45.588;5.288;2023-01-29T13:53:27;3.00;99.90
32201;DHT22;18701;45.588;5.288;2023-01-29T13:55:53;2.80;99.90
32201;DHT22;18701;45.588;5.288;2023-01-29T14:00:58;2.60;99.90
32201;DHT22;18701;45.588;5.288;2023-01-29T14:13:47;2.70;99.90
32201;DHT22;18701;45.588;5.288;2023-01-29T14:18:53;2.60;99.90
32201;DHT22;18701;45.588;5.288;2023-01-29T14:21:22;2.50;99.90
32201;DHT22;18701;45.588;5.288;2023-01-29T14:23:53;2.60;99.90
32201;DHT22;18701;45.588;5.288;2023-01-29T14:32:08;2.60;99.90
32201;DHT22;18701;45.588;5.288;2023-01-29T14:34:41;2.60;99.90
32201;DHT22;18701;45.588;5.288;2023-01-29T14:45:24;2.60;99.90
32201;DHT22;18701;45.588;5.288;2023-01-29T14:56:04;2.60;99.90
32201;DHT22;18701;45.588;5.288;2023-01-29T14:58:43;2.60;99.90
32201;DHT22;18701;45.588;5.288;2023-01-29T15:03:54;2.60;99.90
32201;DHT22;18701;45.588;5.288;2023-01-29T15:06:33;2.50;99.90
32201;DHT22;18701;45.588;5.288;2023-01-29T15:09:13;2.60;99.90
32201;DHT22;18701;45.588;5.288;2023-01-29T15:11:55;2.60;99.90
32201;DHT22;18701;45.588;5.288;2023-01-29T15:14:33;2.60;99.90
32201;DHT22;18701;45.588;5.288;2023-01-29T15:17:29;2.70;99.90
32201;DHT22;18701;45.588;5.288;2023-01-29T15:19:57;2.60;99.90
32201;DHT22;18701;45.588;5.288;2023-01-29T15:22:24;2.60;99.90
32201;DHT22;18701;45.588;5.288;2023-01-29T15:25:13;2.60;99.90
32201;DHT22;18701;45.588;5.288;2023-01-29T15:27:43;2.60;99.90
32201;DHT22;18701;45.588;5.288;2023-01-29T15:30:22;2.60;99.90
32201;DHT22;18701;45.588;5.288;2023-01-29T15:32:50;2.60;99.90
32201;DHT22;18701;45.588;5.288;2023-01-29T15:35:38;2.70;99.90
32201;DHT22;18701;45.588;5.288;2023-01-29T15:38:06;2.60;99.90
32201;DHT22;18701;45.588;5.288;2023-01-29T15:40:38;2.60;99.90
32201;DHT22;18701;45.588;5.288;2023-01-29T15:43:28;2.60;99.90
32201;DHT22;18701;45.588;5.288;2023-01-29T15:45:57;2.60;99.90
32201;DHT22;18701;45.588;5.288;2023-01-29T15:48:31;2.70;99.90
32201;DHT22;18701;45.588;5.288;2023-01-29T15:50:59;2.70;99.90
32201;DHT22;18701;45.588;5.288;2023-01-29T15:53:35;2.60;99.90
32201;DHT22;18701;45.588;5.288;2023-01-29T15:56:01;2.60;99.90
32201;DHT22;18701;45.588;5.288;2023-01-29T15:58:32;2.60;99.90
32201;DHT22;18701;45.588;5.288;2023-01-29T16:00:59;2.60;99.90
32201;DHT22;18701;45.588;5.288;2023-01-29T16:03:27;2.60;99.90
32201;DHT22;18701;45.588;5.288;2023-01-29T16:05:55;2.50;99.90
32201;DHT22;18701;45.588;5.288;2023-01-29T16:08:23;2.60;99.90
32201;DHT22;18701;45.588;5.288;2023-01-29T16:10:54;2.60;99.90
32201;DHT22;18701;45.588;5.288;2023-01-29T16:13:23;2.60;99.90
32201;DHT22;18701;45.588;5.288;2023-01-29T16:16:03;2.60;99.90
32201;DHT22;18701;45.588;5.288;2023-01-29T16:18:37;2.60;99.90
32201;DHT22;18701;45.588;5.288;2023-01-29T16:21:24;2.60;99.90
32201;DHT22;18701;45.588;5.288;2023-01-29T16:23:55;2.60;99.90
32201;DHT22;18701;45.588;5.288;2023-01-29T16:26:27;2.60;99.90
32201;DHT22;18701;45.588;5.288;2023-01-29T16:28:53;2.60;99.90
32201;DHT22;18701;45.588;5.288;2023-01-29T16:31:22;2.60;99.90
32201;DHT22;18701;45.588;5.288;2023-01-29T16:33:48;2.60;99.90
32201;DHT22;18701;45.588;5.288;2023-01-29T16:36:22;2.60;99.90
32201;DHT22;18701;45.588;5.288;2023-01-29T16:38:57;2.60;99.90
32201;DHT22;18701;45.588;5.288;2023-01-29T16:46:46;2.70;99.90
32201;DHT22;18701;45.588;5.288;2023-01-29T16:51:50;2.70;99.90
32201;DHT22;18701;45.588;5.288;2023-01-29T16:54:20;2.60;99.90
32201;DHT22;18701;45.588;5.288;2023-01-29T16:56:50;2.70;99.90
32201;DHT22;18701;45.588;5.288;2023-01-29T16:59:22;2.70;99.90
32201;DHT22;18701;45.588;5.288;2023-01-29T17:01:52;2.70;99.90
32201;DHT22;18701;45.588;5.288;2023-01-29T17:04:18;2.60;99.90
32201;DHT22;18701;45.588;5.288;2023-01-29T17:06:48;2.70;99.90
32201;DHT22;18701;45.588;5.288;2023-01-29T17:09:22;2.70;99.90
32201;DHT22;18701;45.588;5.288;2023-01-29T17:11:57;2.60;99.90
32201;DHT22;18701;45.588;5.288;2023-01-29T17:14:24;2.60;99.90
32201;DHT22;18701;45.588;5.288;2023-01-29T17:16:56;2.50;99.90
32201;DHT22;18701;45.588;5.288;2023-01-29T17:19:25;2.40;99.90
32201;DHT22;18701;45.588;5.288;2023-01-29T17:21:51;2.50;99.90
32201;DHT22;18701;45.588;5.288;2023-01-29T17:24:17;2.50;99.90
32201;DHT22;18701;45.588;5.288;2023-01-29T17:26:42;2.50;99.90
32201;DHT22;18701;45.588;5.288;2023-01-29T17:29:13;2.50;99.90
32201;DHT22;18701;45.588;5.288;2023-01-29T17:31:41;2.40;99.90
32201;DHT22;18701;45.588;5.288;2023-01-29T17:34:11;2.40;99.90
32201;DHT22;18701;45.588;5.288;2023-01-29T17:36:39;2.40;99.90
32201;DHT22;18701;45.588;5.288;2023-01-29T17:39:21;2.50;99.90
32201;DHT22;18701;45.588;5.288;2023-01-29T17:41:55;2.50;99.90
32201;DHT22;18701;45.588;5.288;2023-01-29T17:44:21;2.60;99.90
32201;DHT22;18701;45.588;5.288;2023-01-29T17:46:47;2.60;99.90
32201;DHT22;18701;45.588;5.288;2023-01-29T17:49:27;2.60;99.90
32201;DHT22;18701;45.588;5.288;2023-01-29T17:51:55;2.50;99.90
32201;DHT22;18701;45.588;5.288;2023-01-29T17:54:21;2.50;99.90
32201;DHT22;18701;45.588;5.288;2023-01-29T17:56:48;2.40;99.90
32201;DHT22;18701;45.588;5.288;2023-01-29T17:59:20;2.50;99.90
32201;DHT22;18701;45.588;5.288;2023-01-29T18:01:46;2.50;99.90
32201;DHT22;18701;45.588;5.288;2023-01-29T18:04:13;2.50;99.90
32201;DHT22;18701;45.588;5.288;2023-01-29T18:06:42;2.60;99.90
32201;DHT22;18701;45.588;5.288;2023-01-29T18:09:12;2.50;99.90
32201;DHT22;18701;45.588;5.288;2023-01-29T18:11:38;2.50;99.90
32201;DHT22;18701;45.588;5.288;2023-01-29T18:14:04;2.50;99.90
32201;DHT22;18701;45.588;5.288;2023-01-29T18:16:30;2.50;99.90
32201;DHT22;18701;45.588;5.288;2023-01-29T18:19:02;2.60;99.90
32201;DHT22;18701;45.588;5.288;2023-01-29T18:21:28;2.50;99.90
32201;DHT22;18701;45.588;5.288;2023-01-29T18:23:53;2.60;99.90
32201;DHT22;18701;45.588;5.288;2023-01-29T18:26:19;2.50;99.90
32201;DHT22;18701;45.588;5.288;2023-01-29T18:28:45;2.50;99.90
32201;DHT22;18701;45.588;5.288;2023-01-29T18:31:10;2.40;99.90
32201;DHT22;18701;45.588;5.288;2023-01-29T18:33:36;2.40;99.90
32201;DHT22;18701;45.588;5.288;2023-01-29T18:36:02;2.40;99.90
32201;DHT22;18701;45.588;5.288;2023-01-29T18:38:29;2.50;99.90
32201;DHT22;18701;45.588;5.288;2023-01-29T18:41:08;2.40;99.90
32201;DHT22;18701;45.588;5.288;2023-01-29T18:43:38;2.40;99.90
32201;DHT22;18701;45.588;5.288;2023-01-29T18:46:05;2.50;99.90
32201;DHT22;18701;45.588;5.288;2023-01-29T18:48:31;2.50;99.90
32201;DHT22;18701;45.588;5.288;2023-01-29T18:50:57;2.50;99.90
32201;DHT22;18701;45.588;5.288;2023-01-29T18:53:23;2.40;99.90
32201;DHT22;18701;45.588;5.288;2023-01-29T18:55:59;2.50;99.90
32201;DHT22;18701;45.588;5.288;2023-01-29T18:58:25;2.50;99.90
32201;DHT22;18701;45.588;5.288;2023-01-29T19:00:51;2.50;99.90
32201;DHT22;18701;45.588;5.288;2023-01-29T19:03:17;2.50;99.90